Terminal Aerodrome Forecast
Issued by NWS

Home | Current Version | Previous Version | Text Only | Print | Product List | Glossary On
Versions: 1 2 3 4 5 6 7 8 9 10 11 12 13 14 15 16 17 18 19
000
FTAK31 PAJN 311142
TAFAKT
TAF
PAKT 311142Z 3112/0112 17005KT P6SM -SHRA FEW040 BKN060 OVC080
      TEMPO 3112/3116 5SM SHRA BR BKN030 OVC040
     FM311600 15008KT 6SM -SHRA BKN035 OVC050
     FM312100 14012KT P6SM -SHRA BKN040 OVC060
     FM010300 12012KT 6SM -SHRA BR SCT025 OVC050
      AMD LTD TO CLD VIS AND WIND 3112/3115=

USA.gov is the U.S. government's official web portal to all federal, state and local government web resources and services.